Time;durP1;ratioP1;P1;durP2;ratioP2;P2;SDS_P1;SDS_P2;PMS_P1;PMS_P2;Temp;Humidity;BMP_temperature;BMP_pressure;BME280_temperature;BME280_humidity;BME280_pressure;Samples;Min_cycle;Max_cycle;Signal;HPM_P1;HPM_P2
2023/07/24 00:02:05;;;;;;;;;;;20.70;80.40;;;;;;5052627;28;19913;-54
2023/07/24 00:04:31;;;;;;;;;;;20.70;80.40;;;;;;5057586;28;19920;-54
2023/07/24 00:06:56;;;;;;;;;;;20.70;80.60;;;;;;5061152;28;19913;-54
2023/07/24 00:09:23;;;;;;;;;;;20.70;80.70;;;;;;5063924;28;20027;-54
2023/07/24 00:11:49;;;;;;;;;;;20.70;80.80;;;;;;5056154;28;19940;-54
2023/07/24 00:14:15;;;;;;;;;;;20.70;80.80;;;;;;5059462;28;20352;-54
2023/07/24 00:16:40;;;;;;;;;;;20.70;80.90;;;;;;5056814;28;20308;-54
2023/07/24 00:19:05;;;;;;;;;;;20.70;80.90;;;;;;5065501;28;19913;-54
2023/07/24 00:21:31;;;;;;;;;;;20.70;80.80;;;;;;5058981;28;19913;-54
2023/07/24 00:23:56;;;;;;;;;;;20.70;81.10;;;;;;5066831;28;20394;-54
2023/07/24 00:26:22;;;;;;;;;;;20.70;81.20;;;;;;5058223;28;19908;-54
2023/07/24 00:28:47;;;;;;;;;;;20.70;81.20;;;;;;5055433;28;19916;-54
2023/07/24 00:31:13;;;;;;;;;;;20.70;81.20;;;;;;5055751;28;19964;-54
2023/07/24 00:33:38;;;;;;;;;;;20.70;81.10;;;;;;5055116;28;19916;-54
2023/07/24 00:36:04;;;;;;;;;;;20.70;81.20;;;;;;5070640;28;19923;-53
2023/07/24 00:38:29;;;;;;;;;;;20.70;81.30;;;;;;5062127;28;19965;-54
2023/07/24 00:40:54;;;;;;;;;;;20.70;81.30;;;;;;5055485;28;19913;-54
2023/07/24 00:43:20;;;;;;;;;;;20.70;81.50;;;;;;5059106;28;19912;-54
2023/07/24 00:45:45;;;;;;;;;;;20.70;81.60;;;;;;5058483;28;20301;-54
2023/07/24 00:48:11;;;;;;;;;;;20.70;81.50;;;;;;5057623;28;20341;-54
2023/07/24 00:50:36;;;;;;;;;;;20.70;81.50;;;;;;5060992;28;20327;-54
2023/07/24 00:53:02;;;;;;;;;;;20.70;81.40;;;;;;5068737;28;20060;-54
2023/07/24 00:55:27;;;;;;;;;;;20.70;81.50;;;;;;5057810;28;20419;-54
2023/07/24 00:57:53;;;;;;;;;;;20.70;81.60;;;;;;5057056;28;20024;-54
2023/07/24 01:00:19;;;;;;;;;;;20.70;81.70;;;;;;5055365;28;19912;-54
2023/07/24 01:02:44;;;;;;;;;;;20.80;81.90;;;;;;5058897;28;19917;-54
2023/07/24 01:05:10;;;;;;;;;;;20.70;81.80;;;;;;5056480;28;19912;-54
2023/07/24 01:07:36;;;;;;;;;;;20.80;81.90;;;;;;5057216;28;19916;-54
2023/07/24 01:10:01;;;;;;;;;;;20.70;81.70;;;;;;5064654;28;20011;-54
2023/07/24 01:12:41;;;;;;;;;;;20.70;81.70;;;;;;5058694;28;20025;-54
2023/07/24 01:15:24;;;;;;;;;;;20.70;81.80;;;;;;5053496;28;19971;-54
2023/07/24 01:17:50;;;;;;;;;;;20.70;81.80;;;;;;5058817;28;19913;-54
2023/07/24 01:20:15;;;;;;;;;;;20.80;81.80;;;;;;5052719;28;19939;-54
2023/07/24 01:23:01;;;;;;;;;;;20.70;81.90;;;;;;5058728;28;19959;-54
2023/07/24 01:25:28;;;;;;;;;;;20.70;82.00;;;;;;5053214;28;20611;-54
2023/07/24 01:27:54;;;;;;;;;;;20.70;82.40;;;;;;5052527;28;20548;-53
2023/07/24 01:30:19;;;;;;;;;;;20.70;82.50;;;;;;5058364;28;19965;-54
2023/07/24 01:32:45;;;;;;;;;;;20.70;82.50;;;;;;5060907;28;20400;-54
2023/07/24 01:35:10;;;;;;;;;;;20.70;82.30;;;;;;5068913;28;19919;-54
2023/07/24 01:37:39;;;;;;;;;;;20.70;82.10;;;;;;5065939;28;19919;-54
2023/07/24 01:40:05;;;;;;;;;;;20.70;82.00;;;;;;5056190;28;19920;-53
2023/07/24 01:42:31;;;;;;;;;;;20.70;82.20;;;;;;5056661;28;19916;-54
2023/07/24 01:44:56;;;;;;;;;;;20.70;82.40;;;;;;5052263;28;19935;-54
2023/07/24 01:47:22;;;;;;;;;;;20.70;82.30;;;;;;5055356;28;19924;-54
2023/07/24 01:49:47;;;;;;;;;;;20.70;82.30;;;;;;5060593;28;20003;-54
2023/07/24 01:52:13;;;;;;;;;;;20.80;82.30;;;;;;5053987;28;19917;-54
2023/07/24 01:54:38;;;;;;;;;;;20.70;82.30;;;;;;5061202;28;19913;-54
2023/07/24 01:57:04;;;;;;;;;;;20.70;82.40;;;;;;5053187;28;19920;-54
2023/07/24 01:59:30;;;;;;;;;;;20.70;82.50;;;;;;5055488;28;20288;-54
2023/07/24 02:01:55;;;;;;;;;;;20.70;82.50;;;;;;5055401;28;19912;-54
2023/07/24 02:04:22;;;;;;;;;;;20.70;82.40;;;;;;5053023;28;19913;-54
2023/07/24 02:06:48;;;;;;;;;;;20.70;82.50;;;;;;5064105;28;19981;-54
2023/07/24 02:09:13;;;;;;;;;;;20.70;82.50;;;;;;5069390;28;19951;-54
2023/07/24 02:11:39;;;;;;;;;;;20.70;82.80;;;;;;5066082;28;20406;-54
2023/07/24 02:14:04;;;;;;;;;;;20.70;83.00;;;;;;5059611;28;19920;-54
2023/07/24 02:16:30;;;;;;;;;;;20.70;83.00;;;;;;5060420;28;19917;-55
2023/07/24 02:18:55;;;;;;;;;;;20.70;83.00;;;;;;5072344;28;20372;-54
2023/07/24 02:21:21;;;;;;;;;;;20.70;83.00;;;;;;5071682;28;19918;-54
2023/07/24 02:23:46;;;;;;;;;;;20.70;83.10;;;;;;5052939;28;20397;-54
2023/07/24 02:26:11;;;;;;;;;;;20.70;83.10;;;;;;5056190;28;19917;-54
2023/07/24 02:28:37;;;;;;;;;;;20.70;82.80;;;;;;5053207;28;19921;-54
2023/07/24 02:31:02;;;;;;;;;;;20.70;82.90;;;;;;5061027;28;19952;-54
2023/07/24 02:33:28;;;;;;;;;;;20.70;82.80;;;;;;5054978;28;19928;-54
2023/07/24 02:35:53;;;;;;;;;;;20.70;82.80;;;;;;5063972;28;19916;-54
2023/07/24 02:38:18;;;;;;;;;;;20.70;82.90;;;;;;5060898;28;19916;-54
2023/07/24 02:40:44;;;;;;;;;;;20.70;82.70;;;;;;5057141;28;19965;-54
2023/07/24 02:43:09;;;;;;;;;;;20.70;82.70;;;;;;5059203;28;19913;-54
2023/07/24 02:45:35;;;;;;;;;;;20.70;83.00;;;;;;5054463;28;19912;-54
2023/07/24 02:48:02;;;;;;;;;;;20.70;82.90;;;;;;5061714;28;20426;-54
2023/07/24 02:50:28;;;;;;;;;;;20.70;82.80;;;;;;5052380;28;20033;-54
2023/07/24 02:52:53;;;;;;;;;;;20.70;82.80;;;;;;5055910;28;19917;-54
2023/07/24 02:55:18;;;;;;;;;;;20.70;82.80;;;;;;5056179;28;19931;-54
2023/07/24 02:57:44;;;;;;;;;;;20.80;82.80;;;;;;5053729;28;19921;-54
2023/07/24 03:00:10;;;;;;;;;;;20.80;82.70;;;;;;5059930;28;20442;-54
2023/07/24 03:02:35;;;;;;;;;;;20.80;82.70;;;;;;5054056;28;19924;-54
2023/07/24 03:05:01;;;;;;;;;;;20.80;82.60;;;;;;5059269;28;19919;-54
2023/07/24 03:07:26;;;;;;;;;;;20.80;82.60;;;;;;5061085;28;19920;-54
2023/07/24 03:09:51;;;;;;;;;;;20.80;82.70;;;;;;5056150;28;19916;-54
2023/07/24 03:12:17;;;;;;;;;;;20.80;82.60;;;;;;5056219;28;19923;-54
2023/07/24 03:14:42;;;;;;;;;;;20.70;82.60;;;;;;5054121;28;19920;-54
2023/07/24 03:17:08;;;;;;;;;;;20.80;82.60;;;;;;5063326;28;20323;-54
2023/07/24 03:19:33;;;;;;;;;;;20.80;82.50;;;;;;5062011;28;20269;-54
2023/07/24 03:21:59;;;;;;;;;;;20.80;82.60;;;;;;5050791;28;20003;-54
2023/07/24 03:24:24;;;;;;;;;;;20.70;82.40;;;;;;5051227;28;19959;-54
2023/07/24 03:26:50;;;;;;;;;;;20.80;82.40;;;;;;5061892;28;19962;-54
2023/07/24 03:29:15;;;;;;;;;;;20.80;82.60;;;;;;5055189;28;19924;-54
2023/07/24 03:31:40;;;;;;;;;;;20.80;82.50;;;;;;5054491;28;19919;-53
2023/07/24 03:34:06;;;;;;;;;;;20.80;82.60;;;;;;5051468;28;19932;-54
2023/07/24 03:36:31;;;;;;;;;;;20.80;82.50;;;;;;5054447;28;19942;-54
2023/07/24 03:38:57;;;;;;;;;;;20.80;82.40;;;;;;5062683;28;19962;-54
2023/07/24 03:41:22;;;;;;;;;;;20.80;82.40;;;;;;5050897;28;20028;-54
2023/07/24 03:43:48;;;;;;;;;;;20.70;82.50;;;;;;5061374;28;19912;-54
2023/07/24 03:46:13;;;;;;;;;;;20.70;82.60;;;;;;5059329;28;19921;-54
2023/07/24 03:48:38;;;;;;;;;;;20.70;82.70;;;;;;5049503;28;20439;-54
2023/07/24 03:51:04;;;;;;;;;;;20.70;82.70;;;;;;5050249;28;20368;-54
2023/07/24 03:53:29;;;;;;;;;;;20.70;82.70;;;;;;5056686;28;19917;-54
2023/07/24 03:55:55;;;;;;;;;;;20.70;83.00;;;;;;5061537;28;19920;-54
2023/07/24 03:58:20;;;;;;;;;;;20.70;83.00;;;;;;5061614;28;19945;-54
2023/07/24 04:00:46;;;;;;;;;;;20.70;82.80;;;;;;5055391;28;19924;-54
2023/07/24 04:03:11;;;;;;;;;;;20.70;82.70;;;;;;5057170;28;19927;-54
2023/07/24 04:05:37;;;;;;;;;;;20.70;82.80;;;;;;5049622;28;19917;-54
2023/07/24 04:08:02;;;;;;;;;;;20.70;82.80;;;;;;5051852;28;19921;-54
2023/07/24 04:10:28;;;;;;;;;;;20.70;83.00;;;;;;5059276;28;20273;-54
2023/07/24 04:12:54;;;;;;;;;;;20.70;82.90;;;;;;5055658;28;20019;-54
2023/07/24 04:15:19;;;;;;;;;;;20.70;83.00;;;;;;5056430;28;19921;-54
2023/07/24 04:17:45;;;;;;;;;;;20.70;82.90;;;;;;5056174;28;20015;-53
2023/07/24 04:20:10;;;;;;;;;;;20.70;82.90;;;;;;5060881;28;20541;-53
2023/07/24 04:22:36;;;;;;;;;;;20.70;82.70;;;;;;5057054;28;20003;-54
2023/07/24 04:25:01;;;;;;;;;;;20.70;82.70;;;;;;5064377;28;19913;-54
2023/07/24 04:27:27;;;;;;;;;;;20.70;82.60;;;;;;5066095;28;20387;-53
2023/07/24 04:29:52;;;;;;;;;;;20.70;82.40;;;;;;5058166;28;19919;-54
2023/07/24 04:32:18;;;;;;;;;;;20.70;82.50;;;;;;5056400;28;19944;-53
2023/07/24 04:34:43;;;;;;;;;;;20.70;82.20;;;;;;5051218;28;19919;-54
2023/07/24 04:37:08;;;;;;;;;;;20.70;82.10;;;;;;5053442;28;20331;-54
2023/07/24 04:39:34;;;;;;;;;;;20.70;82.00;;;;;;5057071;28;19917;-54
2023/07/24 04:41:59;;;;;;;;;;;20.70;81.90;;;;;;5061262;28;19916;-54
2023/07/24 04:44:25;;;;;;;;;;;20.70;81.90;;;;;;5056078;28;20341;-54
2023/07/24 04:46:50;;;;;;;;;;;20.70;81.90;;;;;;5055343;28;20370;-54
2023/07/24 04:49:16;;;;;;;;;;;20.70;81.90;;;;;;5055411;28;19925;-54
2023/07/24 04:51:41;;;;;;;;;;;20.70;81.80;;;;;;5063469;28;19908;-54
2023/07/24 04:54:07;;;;;;;;;;;20.70;81.70;;;;;;5061491;28;20380;-54
2023/07/24 04:56:32;;;;;;;;;;;20.70;81.60;;;;;;5061202;28;20319;-54
2023/07/24 04:58:58;;;;;;;;;;;20.70;81.50;;;;;;5057385;28;20294;-54
2023/07/24 05:01:23;;;;;;;;;;;20.70;81.50;;;;;;5054510;28;19943;-54
2023/07/24 05:03:48;;;;;;;;;;;20.70;81.50;;;;;;5055360;28;19938;-54
2023/07/24 05:06:14;;;;;;;;;;;20.70;81.50;;;;;;5058108;28;19917;-54
2023/07/24 05:08:39;;;;;;;;;;;20.70;81.70;;;;;;5054833;28;19920;-54
2023/07/24 05:11:05;;;;;;;;;;;20.70;81.60;;;;;;5054661;28;19917;-54
2023/07/24 05:13:30;;;;;;;;;;;20.70;81.60;;;;;;5055039;28;19919;-54
2023/07/24 05:15:56;;;;;;;;;;;20.70;81.70;;;;;;5064458;28;19917;-55
2023/07/24 05:18:21;;;;;;;;;;;20.70;81.60;;;;;;5057487;28;20354;-54
2023/07/24 05:20:47;;;;;;;;;;;20.70;81.60;;;;;;5055977;28;19913;-54
2023/07/24 05:23:12;;;;;;;;;;;20.70;81.50;;;;;;5060849;28;19913;-54
2023/07/24 05:25:38;;;;;;;;;;;20.70;81.40;;;;;;5064278;28;19913;-54
2023/07/24 05:28:03;;;;;;;;;;;20.80;81.40;;;;;;5056615;28;20346;-54
2023/07/24 05:30:29;;;;;;;;;;;20.80;82.00;;;;;;5055531;28;19940;-55
2023/07/24 05:32:54;;;;;;;;;;;20.80;81.30;;;;;;5054628;28;19928;-54
2023/07/24 05:35:20;;;;;;;;;;;20.80;81.40;;;;;;5060147;28;20419;-53
2023/07/24 05:37:46;;;;;;;;;;;20.80;81.40;;;;;;5060492;28;20288;-54
2023/07/24 05:40:11;;;;;;;;;;;20.80;81.20;;;;;;5060933;28;19916;-54
2023/07/24 05:42:41;;;;;;;;;;;20.80;81.20;;;;;;5064065;28;20438;-54
2023/07/24 05:45:07;;;;;;;;;;;20.80;81.30;;;;;;5056164;28;20349;-54
2023/07/24 05:47:32;;;;;;;;;;;20.80;81.20;;;;;;5054980;28;20392;-54
2023/07/24 05:49:58;;;;;;;;;;;20.80;81.90;;;;;;5056372;28;19913;-54
2023/07/24 05:52:23;;;;;;;;;;;20.80;81.20;;;;;;5055253;28;19989;-54
2023/07/24 05:54:49;;;;;;;;;;;20.80;81.20;;;;;;5055760;28;19917;-54
2023/07/24 05:57:14;;;;;;;;;;;20.80;81.20;;;;;;5058056;28;19917;-54
2023/07/24 05:59:40;;;;;;;;;;;20.80;81.10;;;;;;5054466;28;19912;-54
2023/07/24 06:02:05;;;;;;;;;;;20.80;81.00;;;;;;5057730;28;19968;-54
2023/07/24 06:04:31;;;;;;;;;;;20.80;80.90;;;;;;5061846;28;19916;-54
2023/07/24 06:06:56;;;;;;;;;;;20.80;81.00;;;;;;5066483;28;19913;-54
2023/07/24 06:09:21;;;;;;;;;;;20.80;80.90;;;;;;5056399;28;19963;-54
2023/07/24 06:11:47;;;;;;;;;;;20.80;80.90;;;;;;5061284;28;19935;-54
2023/07/24 06:14:12;;;;;;;;;;;20.80;80.90;;;;;;5059826;28;19936;-54
2023/07/24 06:16:38;;;;;;;;;;;20.80;80.80;;;;;;5057327;28;19944;-54
2023/07/24 06:19:03;;;;;;;;;;;20.80;80.80;;;;;;5062815;28;19958;-54
2023/07/24 06:21:29;;;;;;;;;;;20.80;80.70;;;;;;5060044;28;19919;-55
2023/07/24 06:23:54;;;;;;;;;;;20.80;80.70;;;;;;5057652;28;19995;-54
2023/07/24 06:26:20;;;;;;;;;;;20.80;80.60;;;;;;5063220;28;19952;-54
2023/07/24 06:28:45;;;;;;;;;;;20.80;80.40;;;;;;5054381;28;19929;-54
2023/07/24 06:31:11;;;;;;;;;;;20.80;80.30;;;;;;5065725;28;20007;-54
2023/07/24 06:33:36;;;;;;;;;;;20.80;80.30;;;;;;5060048;28;19931;-54
2023/07/24 06:36:02;;;;;;;;;;;20.80;80.30;;;;;;5061814;28;19916;-54
2023/07/24 06:38:27;;;;;;;;;;;20.80;80.30;;;;;;5066391;28;19958;-54
2023/07/24 06:40:53;;;;;;;;;;;20.80;80.30;;;;;;5061225;28;19917;-54
2023/07/24 06:43:18;;;;;;;;;;;20.80;80.20;;;;;;5058229;28;19951;-54
2023/07/24 06:45:44;;;;;;;;;;;20.80;80.20;;;;;;5063001;28;19917;-54
2023/07/24 06:48:09;;;;;;;;;;;20.80;80.30;;;;;;5057815;28;19928;-54
2023/07/24 06:50:34;;;;;;;;;;;20.80;80.10;;;;;;5052956;28;19912;-54
2023/07/24 06:53:00;;;;;;;;;;;20.80;80.20;;;;;;5058954;28;19916;-54
2023/07/24 06:55:25;;;;;;;;;;;20.80;80.30;;;;;;5058868;28;20039;-54
2023/07/24 06:57:51;;;;;;;;;;;20.80;80.20;;;;;;5056407;28;19966;-54
2023/07/24 07:00:16;;;;;;;;;;;20.80;80.10;;;;;;5054129;28;19920;-54
2023/07/24 07:02:42;;;;;;;;;;;20.80;80.20;;;;;;5059106;28;19916;-54
2023/07/24 07:05:07;;;;;;;;;;;20.80;80.10;;;;;;5053964;28;19943;-54
2023/07/24 07:07:33;;;;;;;;;;;20.80;80.00;;;;;;5050747;28;19936;-54
2023/07/24 07:09:58;;;;;;;;;;;20.80;80.20;;;;;;5055045;28;19920;-54
2023/07/24 07:12:23;;;;;;;;;;;20.80;80.10;;;;;;5051912;28;19925;-54
2023/07/24 07:14:49;;;;;;;;;;;20.80;80.30;;;;;;5056245;28;19916;-54
2023/07/24 07:17:14;;;;;;;;;;;20.80;80.00;;;;;;5065776;28;19915;-54
2023/07/24 07:19:40;;;;;;;;;;;20.80;80.10;;;;;;5060982;28;19963;-54
2023/07/24 07:22:05;;;;;;;;;;;20.80;80.30;;;;;;5052148;28;20400;-54
2023/07/24 07:24:31;;;;;;;;;;;20.80;80.10;;;;;;5052112;28;20456;-54
2023/07/24 07:26:56;;;;;;;;;;;20.90;80.10;;;;;;5064147;28;19920;-54
2023/07/24 07:29:22;;;;;;;;;;;20.80;79.90;;;;;;5053533;28;20415;-54
2023/07/24 07:31:47;;;;;;;;;;;20.80;80.00;;;;;;5052751;28;20233;-54
2023/07/24 07:34:12;;;;;;;;;;;20.90;80.10;;;;;;5059569;28;19914;-54
2023/07/24 07:36:38;;;;;;;;;;;20.90;80.30;;;;;;5061781;28;19988;-54
2023/07/24 07:39:03;;;;;;;;;;;20.90;80.20;;;;;;5056354;28;20296;-54
2023/07/24 07:41:29;;;;;;;;;;;20.80;79.80;;;;;;5060781;28;19935;-54
2023/07/24 07:43:54;;;;;;;;;;;20.90;79.80;;;;;;5059644;28;20234;-55
2023/07/24 07:46:20;;;;;;;;;;;20.90;80.00;;;;;;5055989;28;19961;-54
2023/07/24 07:48:48;;;;;;;;;;;20.90;80.10;;;;;;5058113;28;22399;-54
2023/07/24 07:51:14;;;;;;;;;;;20.90;80.30;;;;;;5056691;28;19912;-54
2023/07/24 07:53:40;;;;;;;;;;;20.90;80.30;;;;;;5058585;28;19913;-54
2023/07/24 07:56:05;;;;;;;;;;;20.90;80.70;;;;;;5060286;28;19974;-54
2023/07/24 07:58:30;;;;;;;;;;;20.90;80.90;;;;;;5058796;28;19959;-53
2023/07/24 08:00:56;;;;;;;;;;;20.90;80.50;;;;;;5055698;28;19913;-54
2023/07/24 08:03:21;;;;;;;;;;;20.90;80.70;;;;;;5048562;28;19939;-54
2023/07/24 08:05:47;;;;;;;;;;;20.90;80.50;;;;;;5053946;28;19964;-54
2023/07/24 08:08:13;;;;;;;;;;;20.90;80.40;;;;;;5049324;28;19917;-54
2023/07/24 08:10:38;;;;;;;;;;;20.90;80.60;;;;;;5055945;28;19920;-55
2023/07/24 08:13:04;;;;;;;;;;;20.90;80.50;;;;;;5054281;28;19927;-54
2023/07/24 08:15:33;;;;;;;;;;;21.00;80.70;;;;;;5052609;28;20381;-54
2023/07/24 08:17:59;;;;;;;;;;;21.00;80.40;;;;;;5053715;28;19916;-55
2023/07/24 08:20:24;;;;;;;;;;;21.00;80.40;;;;;;5050592;28;19919;-55
2023/07/24 08:22:50;;;;;;;;;;;21.00;81.20;;;;;;5050774;28;19916;-54
2023/07/24 08:25:15;;;;;;;;;;;21.00;80.50;;;;;;5054569;28;19921;-55
2023/07/24 08:27:40;;;;;;;;;;;21.00;80.20;;;;;;5053569;28;20630;-54
2023/07/24 08:30:06;;;;;;;;;;;21.00;80.10;;;;;;5050981;28;20054;-54
2023/07/24 08:32:32;;;;;;;;;;;21.10;79.90;;;;;;5056831;28;19916;-55
2023/07/24 08:34:57;;;;;;;;;;;21.10;80.10;;;;;;5052854;28;20517;-54
2023/07/24 08:37:23;;;;;;;;;;;21.10;79.90;;;;;;5060318;28;20289;-53
2023/07/24 08:39:48;;;;;;;;;;;21.10;79.80;;;;;;5058704;28;19912;-53
2023/07/24 08:42:14;;;;;;;;;;;21.10;79.60;;;;;;5054163;28;19916;-53
2023/07/24 08:44:39;;;;;;;;;;;21.10;79.80;;;;;;5060168;28;19916;-54
2023/07/24 08:47:05;;;;;;;;;;;21.10;79.70;;;;;;5056482;28;19924;-53
2023/07/24 08:49:31;;;;;;;;;;;21.10;80.40;;;;;;5054547;28;19921;-54
2023/07/24 08:51:56;;;;;;;;;;;21.10;79.50;;;;;;5057470;28;20011;-55
2023/07/24 08:54:22;;;;;;;;;;;21.10;79.60;;;;;;5058057;28;19924;-53
2023/07/24 08:56:50;;;;;;;;;;;21.10;79.30;;;;;;5055392;28;20269;-54
2023/07/24 08:59:15;;;;;;;;;;;21.10;79.50;;;;;;5063098;28;19918;-53
2023/07/24 09:01:41;;;;;;;;;;;21.10;79.40;;;;;;5054373;28;19909;-53
2023/07/24 09:04:06;;;;;;;;;;;21.10;79.30;;;;;;5053377;28;19920;-53
2023/07/24 09:06:32;;;;;;;;;;;21.10;79.20;;;;;;5055425;28;19912;-53
2023/07/24 09:08:57;;;;;;;;;;;21.20;79.30;;;;;;5057726;28;20360;-53
2023/07/24 09:11:23;;;;;;;;;;;21.10;79.00;;;;;;5059276;28;20415;-53
2023/07/24 09:13:49;;;;;;;;;;;21.10;79.00;;;;;;5058966;28;20411;-53
2023/07/24 09:16:23;;;;;;;;;;;21.10;79.00;;;;;;5062178;28;19970;-53
2023/07/24 09:18:49;;;;;;;;;;;21.20;79.00;;;;;;5058187;28;19921;-53
2023/07/24 09:21:14;;;;;;;;;;;21.20;78.90;;;;;;5056875;28;20416;-53
2023/07/24 09:23:40;;;;;;;;;;;21.20;78.80;;;;;;5063108;28;20007;-53
2023/07/24 09:26:06;;;;;;;;;;;21.20;78.80;;;;;;5059511;28;19971;-53
2023/07/24 09:28:32;;;;;;;;;;;21.20;78.90;;;;;;5058316;28;19926;-53
2023/07/24 09:31:00;;;;;;;;;;;21.20;78.50;;;;;;5063578;28;19913;-53
2023/07/24 09:33:39;;;;;;;;;;;21.20;78.60;;;;;;5057211;28;19913;-53
2023/07/24 09:36:05;;;;;;;;;;;21.20;78.50;;;;;;5050007;28;19921;-53
2023/07/24 09:38:30;;;;;;;;;;;21.20;78.50;;;;;;5055272;28;19922;-54
2023/07/24 09:40:56;;;;;;;;;;;21.20;78.40;;;;;;5050937;28;19912;-53
2023/07/24 09:43:22;;;;;;;;;;;21.20;78.30;;;;;;5052904;28;19921;-53
2023/07/24 09:45:48;;;;;;;;;;;21.20;78.40;;;;;;5058880;28;20304;-54
2023/07/24 09:48:14;;;;;;;;;;;21.20;78.70;;;;;;5056892;28;19921;-53
2023/07/24 09:50:45;;;;;;;;;;;21.30;78.40;;;;;;5057673;28;19935;-53
2023/07/24 09:53:21;;;;;;;;;;;21.30;78.30;;;;;;5061184;28;19946;-53
2023/07/24 09:55:51;;;;;;;;;;;21.30;78.20;;;;;;5055995;28;19951;-53
2023/07/24 09:58:18;;;;;;;;;;;21.20;78.10;;;;;;5050688;28;19920;-54
2023/07/24 10:00:43;;;;;;;;;;;21.30;78.20;;;;;;5054645;28;19947;-54
2023/07/24 10:03:08;;;;;;;;;;;21.30;78.30;;;;;;5057935;28;19913;-54
2023/07/24 10:05:34;;;;;;;;;;;21.20;78.10;;;;;;5054095;28;19921;-54
2023/07/24 10:07:59;;;;;;;;;;;21.30;78.10;;;;;;5054248;28;20439;-54
2023/07/24 10:10:26;;;;;;;;;;;21.30;78.10;;;;;;5058865;28;20399;-54
2023/07/24 10:12:52;;;;;;;;;;;21.30;77.90;;;;;;5057907;28;19916;-53
2023/07/24 10:15:17;;;;;;;;;;;21.30;77.70;;;;;;5054937;28;19919;-53
2023/07/24 10:17:43;;;;;;;;;;;21.30;77.60;;;;;;5052939;28;19951;-54
2023/07/24 10:20:09;;;;;;;;;;;21.30;77.50;;;;;;5055692;28;19923;-53
2023/07/24 10:22:35;;;;;;;;;;;21.30;77.40;;;;;;5053792;28;19912;-53
2023/07/24 10:25:00;;;;;;;;;;;21.30;77.40;;;;;;5058650;28;20392;-54
2023/07/24 10:27:28;;;;;;;;;;;21.30;77.30;;;;;;5053532;28;19916;-53
2023/07/24 10:30:02;;;;;;;;;;;21.30;77.30;;;;;;5053605;28;19938;-53
2023/07/24 10:32:28;;;;;;;;;;;21.30;77.20;;;;;;5057461;28;19921;-53
2023/07/24 10:34:59;;;;;;;;;;;21.30;77.20;;;;;;5052580;28;20503;-53
2023/07/24 10:37:32;;;;;;;;;;;21.30;77.20;;;;;;5058353;28;19935;-54
2023/07/24 10:39:58;;;;;;;;;;;21.30;77.20;;;;;;5051713;28;19913;-53
2023/07/24 10:42:23;;;;;;;;;;;21.30;77.10;;;;;;5051115;28;20270;-54
2023/07/24 10:44:49;;;;;;;;;;;21.30;77.00;;;;;;5052488;28;20274;-53
2023/07/24 10:47:14;;;;;;;;;;;21.30;77.00;;;;;;5056594;28;20289;-53
2023/07/24 10:49:42;;;;;;;;;;;21.40;77.00;;;;;;5056986;28;20395;-53
2023/07/24 10:52:08;;;;;;;;;;;21.40;77.00;;;;;;5051814;28;19985;-53
2023/07/24 10:54:33;;;;;;;;;;;21.40;77.00;;;;;;5052308;28;20015;-53
2023/07/24 10:57:02;;;;;;;;;;;21.40;76.70;;;;;;5061915;28;19916;-53
2023/07/24 10:59:39;;;;;;;;;;;21.40;76.70;;;;;;5058402;28;19917;-53
2023/07/24 11:02:05;;;;;;;;;;;21.40;76.60;;;;;;5056507;28;20383;-53
2023/07/24 11:04:31;;;;;;;;;;;21.40;76.60;;;;;;5052255;28;19913;-53
2023/07/24 11:06:57;;;;;;;;;;;21.40;76.60;;;;;;5050963;28;19920;-55
2023/07/24 11:09:23;;;;;;;;;;;21.40;76.50;;;;;;5051701;28;19917;-53
2023/07/24 11:11:48;;;;;;;;;;;21.40;76.50;;;;;;5053591;28;19920;-53
2023/07/24 11:14:14;;;;;;;;;;;21.40;76.40;;;;;;5055236;28;19913;-53
2023/07/24 11:16:48;;;;;;;;;;;21.40;76.20;;;;;;5051841;28;19913;-53
2023/07/24 11:19:13;;;;;;;;;;;21.40;76.00;;;;;;5057253;28;19913;-53
2023/07/24 11:21:38;;;;;;;;;;;21.50;76.20;;;;;;5059257;28;19909;-53
2023/07/24 11:24:06;;;;;;;;;;;21.50;76.00;;;;;;5049952;28;19909;-53
2023/07/24 11:26:31;;;;;;;;;;;21.50;76.00;;;;;;5051178;28;19931;-53
2023/07/24 11:28:56;;;;;;;;;;;21.50;76.00;;;;;;5053965;28;19920;-53
2023/07/24 11:31:22;;;;;;;;;;;21.50;76.00;;;;;;5051548;28;19913;-53
2023/07/24 11:33:48;;;;;;;;;;;21.50;75.90;;;;;;5057063;28;19961;-53
2023/07/24 11:36:14;;;;;;;;;;;21.50;75.80;;;;;;5051450;28;19912;-53
2023/07/24 11:38:39;;;;;;;;;;;21.50;75.70;;;;;;5051814;28;19909;-53
2023/07/24 11:41:05;;;;;;;;;;;21.50;75.60;;;;;;5051284;28;19923;-53
2023/07/24 11:43:30;;;;;;;;;;;21.50;75.70;;;;;;5053682;28;19920;-54
2023/07/24 11:45:56;;;;;;;;;;;21.50;75.90;;;;;;5054771;28;19913;-53
2023/07/24 11:48:23;;;;;;;;;;;21.50;75.80;;;;;;5053501;28;19990;-54
2023/07/24 11:50:52;;;;;;;;;;;21.50;75.80;;;;;;5051689;28;20324;-53
2023/07/24 11:53:18;;;;;;;;;;;21.50;75.40;;;;;;5050584;28;19909;-53
2023/07/24 11:55:44;;;;;;;;;;;21.50;75.40;;;;;;5055749;28;20011;-53
2023/07/24 11:58:13;;;;;;;;;;;21.60;75.10;;;;;;5050995;28;20054;-53
2023/07/24 12:00:39;;;;;;;;;;;21.60;74.80;;;;;;5056536;28;19913;-53
2023/07/24 12:03:04;;;;;;;;;;;21.60;74.50;;;;;;5051109;28;20270;-54
2023/07/24 12:05:37;;;;;;;;;;;21.70;74.60;;;;;;5052829;28;20363;-53
2023/07/24 12:08:02;;;;;;;;;;;21.70;74.40;;;;;;5057669;28;20222;-53
2023/07/24 12:10:28;;;;;;;;;;;21.80;74.20;;;;;;5055345;28;19913;-53
2023/07/24 12:12:53;;;;;;;;;;;21.80;74.20;;;;;;5055996;28;19953;-53
2023/07/24 12:15:19;;;;;;;;;;;21.80;74.30;;;;;;5055035;28;20258;-53
2023/07/24 12:17:44;;;;;;;;;;;21.70;74.60;;;;;;5055359;28;20373;-54
2023/07/24 12:20:11;;;;;;;;;;;21.80;74.30;;;;;;5064784;28;20293;-53
2023/07/24 12:22:36;;;;;;;;;;;21.90;74.10;;;;;;5056107;28;20488;-54
2023/07/24 12:25:02;;;;;;;;;;;21.90;73.40;;;;;;5063328;28;20003;-53
2023/07/24 12:27:28;;;;;;;;;;;21.90;73.00;;;;;;5073347;28;19920;-54
2023/07/24 12:29:53;;;;;;;;;;;21.90;72.70;;;;;;5058584;28;20402;-53
2023/07/24 12:32:19;;;;;;;;;;;22.00;72.60;;;;;;5059849;28;19912;-54
2023/07/24 12:34:46;;;;;;;;;;;22.00;72.30;;;;;;5057689;28;19974;-53
2023/07/24 12:37:11;;;;;;;;;;;22.10;72.20;;;;;;5059792;28;20347;-53
2023/07/24 12:39:37;;;;;;;;;;;22.10;72.00;;;;;;5060872;28;19913;-53
2023/07/24 12:42:02;;;;;;;;;;;22.20;72.10;;;;;;5054565;28;20365;-53
2023/07/24 12:44:28;;;;;;;;;;;22.20;71.90;;;;;;5054660;28;20469;-53
2023/07/24 12:46:53;;;;;;;;;;;22.10;71.70;;;;;;5057738;28;19917;-53
2023/07/24 12:49:19;;;;;;;;;;;22.10;71.90;;;;;;5055171;28;19924;-53
2023/07/24 12:51:44;;;;;;;;;;;22.10;71.90;;;;;;5054036;28;19981;-53
2023/07/24 12:54:10;;;;;;;;;;;22.10;71.60;;;;;;5053655;28;19916;-53
2023/07/24 12:56:35;;;;;;;;;;;22.10;71.50;;;;;;5054918;28;20019;-53
2023/07/24 12:59:01;;;;;;;;;;;22.10;71.50;;;;;;5053812;28;19970;-54
2023/07/24 13:01:28;;;;;;;;;;;22.20;71.50;;;;;;5053530;28;19960;-53
2023/07/24 13:03:54;;;;;;;;;;;22.20;70.40;;;;;;5054557;28;20017;-52
2023/07/24 13:06:19;;;;;;;;;;;22.30;68.80;;;;;;5054106;28;20400;-53
2023/07/24 13:08:45;;;;;;;;;;;22.40;68.60;;;;;;5060495;28;20019;-53
2023/07/24 13:11:10;;;;;;;;;;;22.40;68.40;;;;;;5062940;28;20431;-53
2023/07/24 13:13:36;;;;;;;;;;;22.50;69.00;;;;;;5060956;28;19924;-53
2023/07/24 13:16:02;;;;;;;;;;;22.50;67.70;;;;;;5053573;28;19924;-52
2023/07/24 13:18:28;;;;;;;;;;;22.50;67.70;;;;;;5061101;28;20304;-53
2023/07/24 13:20:53;;;;;;;;;;;22.50;68.00;;;;;;5058349;28;19912;-52
2023/07/24 13:23:19;;;;;;;;;;;22.50;68.20;;;;;;5055430;28;19913;-52
2023/07/24 13:25:44;;;;;;;;;;;22.50;68.10;;;;;;5065468;28;20360;-52
2023/07/24 13:28:10;;;;;;;;;;;22.60;68.00;;;;;;5057726;28;19982;-52
2023/07/24 13:30:35;;;;;;;;;;;22.60;68.30;;;;;;5053649;28;19996;-53
2023/07/24 13:33:01;;;;;;;;;;;22.60;68.20;;;;;;5057259;28;19913;-53
2023/07/24 13:35:26;;;;;;;;;;;22.60;68.10;;;;;;5061002;28;19987;-53
2023/07/24 13:37:51;;;;;;;;;;;22.60;68.20;;;;;;5057321;28;20372;-54
2023/07/24 13:40:17;;;;;;;;;;;22.60;68.60;;;;;;5053990;28;20420;-53
2023/07/24 13:42:42;;;;;;;;;;;22.60;68.90;;;;;;5051002;28;20389;-53
2023/07/24 13:45:08;;;;;;;;;;;22.60;68.80;;;;;;5054282;28;20408;-53
2023/07/24 13:47:33;;;;;;;;;;;22.60;68.80;;;;;;5058531;28;19925;-54
2023/07/24 13:50:02;;;;;;;;;;;22.60;68.10;;;;;;5053646;28;19913;-53
2023/07/24 13:52:28;;;;;;;;;;;22.60;68.20;;;;;;5054500;28;19917;-53
2023/07/24 13:54:54;;;;;;;;;;;22.60;67.70;;;;;;5066299;28;19962;-53
2023/07/24 13:57:19;;;;;;;;;;;22.50;67.60;;;;;;5068180;28;19916;-53
2023/07/24 13:59:45;;;;;;;;;;;22.50;67.60;;;;;;5056998;28;19916;-54
2023/07/24 14:02:12;;;;;;;;;;;22.50;67.50;;;;;;5053157;28;19975;-53
2023/07/24 14:04:37;;;;;;;;;;;22.50;67.30;;;;;;5052782;28;19967;-53
2023/07/24 14:07:03;;;;;;;;;;;22.50;67.50;;;;;;5053051;28;19912;-53
2023/07/24 14:09:30;;;;;;;;;;;22.60;67.10;;;;;;5052515;28;19995;-53